Time;durP1;ratioP1;P1;durP2;ratioP2;P2;SDS_P1;SDS_P2;PMS_P1;PMS_P2;Temp;Humidity;BMP_temperature;BMP_pressure;BME280_temperature;BME280_humidity;BME280_pressure;Samples;Min_cycle;Max_cycle;Signal;HPM_P1;HPM_P2
2021/07/28 00:00:53;;;;;;;23.83;13.38;;;15.80;99.90;;;;;;4989057;28;20038;-96
2021/07/28 00:03:19;;;;;;;24.50;12.95;;;15.80;99.90;;;;;;4985189;28;20027;-92
2021/07/28 00:05:45;;;;;;;22.98;14.07;;;15.80;99.90;;;;;;4977462;28;20034;-93
2021/07/28 00:08:10;;;;;;;23.13;14.85;;;15.70;99.90;;;;;;4976645;28;20109;-96
2021/07/28 00:10:36;;;;;;;22.77;13.80;;;15.80;99.90;;;;;;4980034;28;20031;-93
2021/07/28 00:13:02;;;;;;;24.48;14.82;;;15.70;99.90;;;;;;4979261;28;20038;-94
2021/07/28 00:15:27;;;;;;;20.40;13.88;;;15.70;99.90;;;;;;4978042;28;20035;-92
2021/07/28 00:17:58;;;;;;;22.67;14.13;;;15.80;99.90;;;;;;4978414;28;20045;-96
2021/07/28 00:23:13;;;;;;;27.38;14.35;;;15.70;99.90;;;;;;4978672;28;20026;-96
2021/07/28 00:23:15;;;;;;;21.75;13.35;;;15.70;99.90;;;;;;4978675;28;20042;-94
2021/07/28 00:25:47;;;;;;;24.20;14.18;;;15.70;99.90;;;;;;4978961;28;20037;-95
2021/07/28 00:28:13;;;;;;;25.15;14.20;;;15.70;99.90;;;;;;4980464;28;20019;-96
2021/07/28 00:30:43;;;;;;;25.42;13.32;;;15.70;99.90;;;;;;4980823;28;20027;-96
2021/07/28 00:33:09;;;;;;;21.58;14.00;;;15.60;99.90;;;;;;4979066;28;20019;-96
2021/07/28 00:35:35;;;;;;;22.92;14.23;;;15.60;99.90;;;;;;4978728;28;20061;-95
2021/07/28 00:38:05;;;;;;;18.77;13.43;;;15.60;99.90;;;;;;4978525;28;20035;-95
2021/07/28 00:40:31;;;;;;;22.85;14.93;;;15.50;99.90;;;;;;4980251;28;20117;-96
2021/07/28 00:43:15;;;;;;;24.20;14.30;;;15.50;99.90;;;;;;4982420;28;20024;-96
2021/07/28 00:45:41;;;;;;;26.45;14.55;;;15.50;99.90;;;;;;4984135;28;20031;-96
2021/07/28 00:48:08;;;;;;;24.50;14.30;;;15.50;99.90;;;;;;4986879;28;20027;-96
2021/07/28 00:50:37;;;;;;;25.27;14.43;;;15.50;99.90;;;;;;4982890;28;20031;-96
2021/07/28 00:53:03;;;;;;;23.83;14.10;;;15.50;99.90;;;;;;4979809;28;20035;-96
2021/07/28 00:55:33;;;;;;;23.98;14.85;;;15.50;99.90;;;;;;4980558;28;20035;-96
2021/07/28 00:58:00;;;;;;;24.40;13.20;;;15.50;99.90;;;;;;4980165;28;20047;-96
2021/07/28 01:00:28;;;;;;;19.75;12.73;;;15.50;99.90;;;;;;4982102;28;20041;-96
2021/07/28 01:02:54;;;;;;;24.17;13.60;;;15.50;99.90;;;;;;4983903;28;20033;-96
2021/07/28 01:05:21;;;;;;;22.45;13.10;;;15.50;99.90;;;;;;4982239;28;20023;-95
2021/07/28 01:07:47;;;;;;;20.60;13.52;;;15.50;99.90;;;;;;4982931;28;20030;-96
2021/07/28 01:10:13;;;;;;;24.20;14.88;;;15.50;99.90;;;;;;4982724;28;20030;-96
2021/07/28 01:12:44;;;;;;;22.67;13.63;;;15.40;99.90;;;;;;4982130;28;20117;-96
2021/07/28 01:15:12;;;;;;;24.95;14.57;;;15.40;99.90;;;;;;4970702;28;20106;-95
2021/07/28 01:17:38;;;;;;;22.77;14.05;;;15.40;99.90;;;;;;4979194;28;20027;-95
2021/07/28 01:20:07;;;;;;;23.25;14.10;;;15.40;99.90;;;;;;4965647;28;20038;-96
2021/07/28 01:22:34;;;;;;;24.70;14.40;;;15.40;99.90;;;;;;4963101;28;20031;-94
2021/07/28 01:25:00;;;;;;;23.42;15.57;;;15.40;99.90;;;;;;4962928;28;20094;-93
2021/07/28 01:27:28;;;;;;;25.30;14.48;;;15.40;99.90;;;;;;4961150;28;20057;-95
2021/07/28 01:29:54;;;;;;;28.27;16.23;;;15.40;99.90;;;;;;4961270;28;20121;-94
2021/07/28 01:32:20;;;;;;;24.73;15.05;;;15.40;99.90;;;;;;4960996;28;20061;-94
2021/07/28 01:34:46;;;;;;;23.45;14.90;;;15.40;99.90;;;;;;4961486;28;20031;-93
2021/07/28 01:37:14;;;;;;;24.98;14.45;;;15.40;99.90;;;;;;4960733;28;20128;-93
2021/07/28 01:39:40;;;;;;;27.15;13.95;;;15.40;99.90;;;;;;4959703;28;20027;-94
2021/07/28 01:42:06;;;;;;;24.45;14.15;;;15.50;99.90;;;;;;4959856;28;20026;-94
2021/07/28 01:44:32;;;;;;;25.05;14.65;;;15.50;99.90;;;;;;4959163;28;20026;-94
2021/07/28 01:46:58;;;;;;;28.75;15.50;;;15.50;99.90;;;;;;4959205;28;20031;-95
2021/07/28 01:49:24;;;;;;;26.95;14.32;;;15.40;99.90;;;;;;4960261;28;20066;-94
2021/07/28 01:51:50;;;;;;;26.92;14.95;;;15.40;99.90;;;;;;4961373;28;20054;-95
2021/07/28 01:54:15;;;;;;;26.63;15.68;;;15.40;99.90;;;;;;4959612;28;20027;-95
2021/07/28 01:56:44;;;;;;;27.98;15.75;;;15.40;99.90;;;;;;4958964;28;20039;-95
2021/07/28 01:59:14;;;;;;;25.42;15.15;;;15.40;99.90;;;;;;4959909;28;20025;-95
2021/07/28 02:01:40;;;;;;;27.23;14.25;;;15.40;99.90;;;;;;4961921;28;20097;-94
2021/07/28 02:04:06;;;;;;;30.63;16.33;;;15.40;99.90;;;;;;4960629;28;20032;-95
2021/07/28 02:06:32;;;;;;;27.92;14.90;;;15.50;99.90;;;;;;4960204;28;20058;-96
2021/07/28 02:08:58;;;;;;;25.88;15.20;;;15.50;99.90;;;;;;4959752;28;20035;-94
2021/07/28 02:11:23;;;;;;;26.08;15.27;;;15.50;99.90;;;;;;4960286;28;20491;-94
2021/07/28 02:13:49;;;;;;;25.67;13.85;;;15.50;99.90;;;;;;4968267;28;20085;-94
2021/07/28 02:16:15;;;;;;;23.17;14.85;;;15.60;99.90;;;;;;4975574;28;20129;-93
2021/07/28 02:18:40;;;;;;;23.45;14.52;;;15.60;99.90;;;;;;4979378;28;20023;-93
2021/07/28 02:21:06;;;;;;;24.50;14.65;;;15.60;99.90;;;;;;4987062;28;20487;-93
2021/07/28 02:23:32;;;;;;;30.92;15.02;;;15.60;99.90;;;;;;4985596;28;20027;-95
2021/07/28 02:25:58;;;;;;;26.02;14.13;;;15.60;99.90;;;;;;4983618;28;20054;-95
2021/07/28 02:28:24;;;;;;;23.52;13.90;;;15.60;99.90;;;;;;4983361;28;20030;-95
2021/07/28 02:30:49;;;;;;;21.67;14.27;;;15.60;99.90;;;;;;4982512;28;20027;-95
2021/07/28 02:33:15;;;;;;;27.13;14.98;;;15.60;99.90;;;;;;4984656;28;20035;-93
2021/07/28 02:35:41;;;;;;;27.70;15.07;;;15.60;99.90;;;;;;4979611;28;20429;-94
2021/07/28 02:38:07;;;;;;;25.85;14.88;;;15.60;99.90;;;;;;4978155;28;20476;-94
2021/07/28 02:40:33;;;;;;;25.70;13.98;;;15.60;99.90;;;;;;4975978;28;20100;-93
2021/07/28 02:42:59;;;;;;;24.52;14.68;;;15.50;99.90;;;;;;4976092;28;20027;-94
2021/07/28 02:45:25;;;;;;;23.08;14.52;;;15.50;99.90;;;;;;4974697;28;20499;-94
2021/07/28 02:47:51;;;;;;;24.17;14.85;;;15.50;99.90;;;;;;4975832;28;20034;-96
2021/07/28 02:50:17;;;;;;;23.85;14.68;;;15.50;99.90;;;;;;4977352;28;20122;-95
2021/07/28 02:52:43;;;;;;;26.80;16.05;;;15.50;99.90;;;;;;4975930;28;20026;-96
2021/07/28 02:55:09;;;;;;;25.80;15.95;;;15.60;99.90;;;;;;4975494;28;20038;-93
2021/07/28 02:57:36;;;;;;;25.77;15.30;;;15.60;99.90;;;;;;4975362;28;20079;-94
2021/07/28 03:00:04;;;;;;;27.13;15.95;;;15.60;99.90;;;;;;4975377;28;20101;-94
2021/07/28 03:02:30;;;;;;;23.80;15.98;;;15.60;99.90;;;;;;4988221;28;20038;-92
2021/07/28 03:04:56;;;;;;;31.15;17.58;;;15.60;99.90;;;;;;4996647;28;20035;-94
2021/07/28 03:07:22;;;;;;;29.38;18.33;;;15.60;99.90;;;;;;4993805;28;20041;-95
2021/07/28 03:09:47;;;;;;;30.65;18.80;;;15.60;99.90;;;;;;4986203;28;20022;-93
2021/07/28 03:12:14;;;;;;;39.33;18.83;;;15.60;99.90;;;;;;4996818;28;20041;-94
2021/07/28 03:14:40;;;;;;;30.30;18.30;;;15.70;99.90;;;;;;4988373;28;20054;-95
2021/07/28 03:17:06;;;;;;;33.05;18.30;;;15.60;99.90;;;;;;4983235;28;20035;-95
2021/07/28 03:19:32;;;;;;;32.95;20.70;;;15.70;99.90;;;;;;4982846;28;20512;-95
2021/07/28 03:21:58;;;;;;;38.40;22.80;;;15.70;99.90;;;;;;4980263;28;20065;-96
2021/07/28 03:24:24;;;;;;;44.42;21.92;;;15.70;99.90;;;;;;4979722;28;20023;-92
2021/07/28 03:26:50;;;;;;;43.45;23.17;;;15.70;99.90;;;;;;4975821;28;20074;-92
2021/07/28 03:29:16;;;;;;;40.90;22.38;;;15.70;99.90;;;;;;4977401;28;20071;-93
2021/07/28 03:31:41;;;;;;;49.42;24.30;;;15.70;99.90;;;;;;4974143;28;20085;-92
2021/07/28 03:34:07;;;;;;;45.45;24.23;;;15.70;99.90;;;;;;4975132;28;20469;-93
2021/07/28 03:36:33;;;;;;;41.60;23.77;;;15.70;99.90;;;;;;4974388;28;20070;-94
2021/07/28 03:38:59;;;;;;;45.30;23.92;;;15.80;99.90;;;;;;4974007;28;20384;-93
2021/07/28 03:41:24;;;;;;;47.60;23.20;;;15.80;99.90;;;;;;4974150;28;20030;-93
2021/07/28 03:43:50;;;;;;;46.95;25.63;;;15.70;99.90;;;;;;4974834;28;20019;-94
2021/07/28 03:46:16;;;;;;;47.65;23.98;;;15.70;99.90;;;;;;4980015;28;20019;-94
2021/07/28 03:48:41;;;;;;;44.65;23.15;;;15.80;99.90;;;;;;4995093;28;20033;-94
2021/07/28 03:51:07;;;;;;;45.10;24.00;;;15.80;99.90;;;;;;4981356;28;20033;-94
2021/07/28 03:53:35;;;;;;;40.20;23.05;;;15.70;99.90;;;;;;4979180;28;20033;-93
2021/07/28 03:56:01;;;;;;;47.83;23.95;;;15.70;99.90;;;;;;4978563;28;20480;-93
2021/07/28 03:58:27;;;;;;;23.25;13.38;;;15.80;99.90;;;;;;4978480;28;20186;-93
2021/07/28 04:00:55;;;;;;;20.13;11.02;;;15.70;99.90;;;;;;4978634;28;20054;-94
2021/07/28 04:03:21;;;;;;;14.70;9.48;;;15.70;99.90;;;;;;4977863;28;20031;-95
2021/07/28 04:05:46;;;;;;;12.68;7.57;;;15.70;99.90;;;;;;4978914;28;20388;-93
2021/07/28 04:08:12;;;;;;;11.70;7.28;;;15.60;99.90;;;;;;4978113;28;20121;-94
2021/07/28 04:10:38;;;;;;;7.82;5.35;;;15.60;99.90;;;;;;4981997;28;20035;-93
2021/07/28 04:13:05;;;;;;;7.63;4.88;;;15.60;99.90;;;;;;4990133;28;20043;-96
2021/07/28 04:15:31;;;;;;;6.88;4.72;;;15.60;99.90;;;;;;4991451;28;20039;-93
2021/07/28 04:17:57;;;;;;;7.00;4.57;;;15.50;99.90;;;;;;4977247;28;20041;-94
2021/07/28 04:20:23;;;;;;;6.13;3.95;;;15.40;99.90;;;;;;4977036;28;20045;-94
2021/07/28 04:22:48;;;;;;;4.13;3.05;;;15.40;99.90;;;;;;4978053;28;20027;-94
2021/07/28 04:25:14;;;;;;;4.13;3.03;;;15.30;99.90;;;;;;4978100;28;20050;-93
2021/07/28 04:27:40;;;;;;;3.30;2.10;;;15.30;99.90;;;;;;4978041;28;20525;-93
2021/07/28 04:30:09;;;;;;;1.88;1.40;;;15.30;99.90;;;;;;4989346;28;20030;-94
2021/07/28 04:32:35;;;;;;;3.95;1.30;;;15.20;99.90;;;;;;4987672;28;20030;-94
2021/07/28 04:35:01;;;;;;;2.63;1.33;;;15.20;99.90;;;;;;4987520;28;21973;-95
2021/07/28 04:37:27;;;;;;;2.28;1.38;;;15.20;99.90;;;;;;4992571;28;20027;-94
2021/07/28 04:42:32;;;;;;;2.88;1.80;;;15.10;99.90;;;;;;5563030;23;20512;-94
2021/07/28 04:48:07;;;;;;;2.17;0.68;;;15.00;99.90;;;;;;4974656;28;20071;-93
2021/07/28 04:50:44;;;;;;;3.08;1.00;;;14.90;99.90;;;;;;4961024;28;20022;-95
2021/07/28 04:53:33;;;;;;;1.25;0.88;;;14.80;99.90;;;;;;4961418;28;20121;-93
2021/07/28 04:56:06;;;;;;;1.20;1.00;;;14.80;99.90;;;;;;4960133;28;20035;-95
2021/07/28 04:58:50;;;;;;;1.98;1.02;;;14.80;99.90;;;;;;4961572;28;20042;-92
2021/07/28 05:01:47;;;;;;;1.52;1.20;;;14.70;99.90;;;;;;4978083;28;20035;-93
2021/07/28 05:07:21;;;;;;;3.55;1.35;;;14.60;99.90;;;;;;4989706;28;20049;-93
2021/07/28 05:12:33;;;;;;;3.08;1.42;;;14.60;99.90;;;;;;4985078;28;20178;-94
2021/07/28 05:15:03;;;;;;;2.88;1.40;;;14.60;99.90;;;;;;4966311;28;20070;-94
2021/07/28 05:17:28;;;;;;;1.30;1.17;;;14.60;99.90;;;;;;4966197;28;20031;-94
2021/07/28 05:19:57;;;;;;;1.90;1.48;;;14.50;99.90;;;;;;4961395;28;20019;-95
2021/07/28 05:22:23;;;;;;;3.38;1.60;;;14.40;99.90;;;;;;4961441;28;20472;-93
2021/07/28 05:24:48;;;;;;;2.30;1.30;;;14.40;99.90;;;;;;4960690;28;20123;-93
2021/07/28 05:27:16;;;;;;;2.45;1.17;;;14.40;99.90;;;;;;4960757;28;20028;-94
2021/07/28 05:29:42;;;;;;;1.60;1.15;;;14.30;99.90;;;;;;4960010;28;20027;-93
2021/07/28 05:32:07;;;;;;;2.35;1.25;;;14.30;99.90;;;;;;4960095;28;20089;-93
2021/07/28 05:34:36;;;;;;;2.97;1.30;;;14.30;99.90;;;;;;4959857;28;20110;-92
2021/07/28 05:37:02;;;;;;;2.40;1.23;;;14.20;99.90;;;;;;4960029;28;20065;-92
2021/07/28 05:39:28;;;;;;;1.52;1.30;;;14.20;99.90;;;;;;4959563;28;20054;-94
2021/07/28 05:41:56;;;;;;;2.17;1.27;;;14.20;99.90;;;;;;4959015;28;20030;-94
2021/07/28 05:44:22;;;;;;;3.05;1.23;;;14.20;99.90;;;;;;4959294;28;20612;-91
2021/07/28 05:46:48;;;;;;;3.47;1.60;;;14.30;99.90;;;;;;4959192;28;20126;-95
2021/07/28 05:49:42;;;;;;;4.13;1.65;;;14.30;99.90;;;;;;4959186;28;20064;-93
2021/07/28 05:52:08;;;;;;;5.55;1.67;;;14.30;99.90;;;;;;4957772;28;20053;-93
2021/07/28 05:54:34;;;;;;;5.03;1.65;;;14.30;99.90;;;;;;4959578;28;20023;-92
2021/07/28 05:57:00;;;;;;;3.17;1.90;;;14.30;99.90;;;;;;4959067;28;20042;-94
2021/07/28 05:59:27;;;;;;;4.05;1.92;;;14.40;99.90;;;;;;4959210;28;20030;-94
2021/07/28 06:01:52;;;;;;;3.40;1.77;;;14.40;99.90;;;;;;4958788;28;20054;-95
2021/07/28 06:04:18;;;;;;;4.88;1.63;;;14.40;99.90;;;;;;4959022;28;20121;-94
2021/07/28 06:06:44;;;;;;;5.25;2.10;;;14.40;99.90;;;;;;4958552;28;20027;-94
2021/07/28 06:09:09;;;;;;;6.75;2.40;;;14.50;99.90;;;;;;4959209;28;20042;-93
2021/07/28 06:11:35;;;;;;;4.00;2.22;;;14.50;99.90;;;;;;4959336;28;20030;-93
2021/07/28 06:14:01;;;;;;;7.18;2.40;;;14.60;99.90;;;;;;4959649;28;20030;-93
2021/07/28 06:16:26;;;;;;;3.95;2.22;;;14.50;99.90;;;;;;4957832;28;20038;-93
2021/07/28 06:18:52;;;;;;;4.75;2.70;;;14.50;99.90;;;;;;4959221;28;20023;-94
2021/07/28 06:21:18;;;;;;;5.35;2.92;;;14.60;99.90;;;;;;4959091;28;20096;-93
2021/07/28 06:23:43;;;;;;;4.07;2.38;;;14.60;99.90;;;;;;4959589;28;20636;-94
2021/07/28 06:26:09;;;;;;;7.15;3.22;;;14.60;99.90;;;;;;4959963;28;20058;-93
2021/07/28 06:28:35;;;;;;;6.82;3.40;;;14.60;99.90;;;;;;4959581;28;20409;-93
2021/07/28 06:31:01;;;;;;;6.50;3.03;;;14.60;99.90;;;;;;4958878;28;20026;-92
2021/07/28 06:33:26;;;;;;;4.60;3.25;;;14.60;99.90;;;;;;4959788;28;20401;-93
2021/07/28 06:35:53;;;;;;;6.88;3.40;;;14.70;99.90;;;;;;4959889;28;20037;-94
2021/07/28 06:38:19;;;;;;;4.75;3.50;;;14.70;99.90;;;;;;4959929;28;20031;-91
2021/07/28 06:40:45;;;;;;;5.05;3.22;;;14.70;99.90;;;;;;4959665;28;20026;-91
2021/07/28 06:43:12;;;;;;;8.18;3.40;;;14.70;99.90;;;;;;4971628;28;20111;-91
2021/07/28 06:45:38;;;;;;;8.23;4.15;;;14.70;99.90;;;;;;4977269;28;20066;-92
2021/07/28 06:48:04;;;;;;;6.35;3.45;;;14.80;99.90;;;;;;4985047;28;20038;-91
2021/07/28 06:50:30;;;;;;;6.78;3.50;;;14.80;99.90;;;;;;4989715;28;20022;-92
2021/07/28 06:52:56;;;;;;;4.93;3.30;;;14.90;99.90;;;;;;4987825;28;20058;-92
2021/07/28 06:55:21;;;;;;;7.18;2.90;;;14.90;99.90;;;;;;4983844;28;20042;-93
2021/07/28 06:57:47;;;;;;;6.43;3.13;;;14.90;99.90;;;;;;4983981;28;20082;-92
2021/07/28 07:00:13;;;;;;;4.15;2.97;;;14.90;99.90;;;;;;4978785;28;20035;-94
2021/07/28 07:02:39;;;;;;;3.97;3.00;;;14.90;99.90;;;;;;4979105;28;20027;-93
2021/07/28 07:05:05;;;;;;;6.25;3.40;;;14.90;99.90;;;;;;4977591;28;20033;-93
2021/07/28 07:07:31;;;;;;;8.15;3.47;;;14.90;99.90;;;;;;4974750;28;20034;-92
2021/07/28 07:09:57;;;;;;;7.63;3.42;;;15.00;99.90;;;;;;4975471;28;20046;-94
2021/07/28 07:12:23;;;;;;;6.05;2.75;;;15.00;99.90;;;;;;4980369;28;20026;-94
2021/07/28 07:14:49;;;;;;;5.35;2.78;;;15.10;99.90;;;;;;4975711;28;20085;-95
2021/07/28 07:17:16;;;;;;;6.20;2.80;;;15.10;99.90;;;;;;4976487;28;20003;-94
2021/07/28 07:19:48;;;;;;;6.03;2.70;;;15.20;99.90;;;;;;4982346;28;20031;-95
2021/07/28 07:22:14;;;;;;;6.28;3.00;;;15.20;99.90;;;;;;4981997;28;20397;-95
2021/07/28 07:24:40;;;;;;;14.18;4.10;;;15.30;99.90;;;;;;4986672;28;20022;-95
2021/07/28 07:27:09;;;;;;;7.70;4.32;;;15.30;99.90;;;;;;4986066;28;20031;-94
2021/07/28 07:29:34;;;;;;;8.18;5.03;;;15.40;99.90;;;;;;4991522;28;20030;-94
2021/07/28 07:32:02;;;;;;;8.65;5.15;;;15.40;99.90;;;;;;4984250;28;20053;-94
2021/07/28 07:34:28;;;;;;;8.20;4.72;;;15.30;99.90;;;;;;4986607;28;20084;-94
2021/07/28 07:36:53;;;;;;;8.43;5.18;;;15.40;99.90;;;;;;4990348;28;20062;-96
2021/07/28 07:39:19;;;;;;;8.35;6.13;;;15.40;99.90;;;;;;4984191;28;20023;-94
2021/07/28 07:41:47;;;;;;;8.55;5.80;;;15.30;99.90;;;;;;4982554;28;20035;-95
2021/07/28 07:44:12;;;;;;;11.50;6.72;;;15.30;99.90;;;;;;4965457;28;20031;-95
2021/07/28 07:46:51;;;;;;;9.02;6.57;;;15.30;99.90;;;;;;4980119;28;20007;-95
2021/07/28 07:49:17;;;;;;;12.32;6.57;;;15.30;99.90;;;;;;4976753;28;20489;-94
2021/07/28 07:51:43;;;;;;;10.00;7.65;;;15.30;99.90;;;;;;4980597;28;20113;-94
2021/07/28 07:54:09;;;;;;;15.35;7.18;;;15.40;99.90;;;;;;4971476;28;20453;-94
2021/07/28 07:56:34;;;;;;;9.43;7.60;;;15.40;99.90;;;;;;4977118;28;20047;-96
2021/07/28 07:59:18;;;;;;;9.63;7.53;;;15.50;99.90;;;;;;4977259;28;20018;-95
2021/07/28 08:01:44;;;;;;;11.27;7.63;;;15.50;99.90;;;;;;4972924;28;20026;-94
2021/07/28 08:04:10;;;;;;;9.10;6.45;;;15.60;99.90;;;;;;4967300;28;20034;-93
2021/07/28 08:06:39;;;;;;;12.65;6.72;;;15.70;99.90;;;;;;4962869;28;20019;-92
2021/07/28 08:09:05;;;;;;;10.75;6.93;;;15.70;99.90;;;;;;4961729;28;20102;-94
2021/07/28 08:11:31;;;;;;;14.70;6.43;;;15.70;99.90;;;;;;4959839;28;20029;-94
2021/07/28 08:13:57;;;;;;;6.47;5.28;;;15.80;99.90;;;;;;4960008;28;20105;-95
2021/07/28 08:16:23;;;;;;;10.45;7.25;;;15.80;99.90;;;;;;4952556;28;20071;-93
2021/07/28 08:18:51;;;;;;;9.25;6.60;;;15.80;99.90;;;;;;4956964;28;20023;-94
2021/07/28 08:21:17;;;;;;;13.75;7.40;;;15.80;99.90;;;;;;4956470;28;20023;-94
2021/07/28 08:23:46;;;;;;;12.43;5.85;;;15.80;99.90;;;;;;4959846;28;20121;-93
2021/07/28 08:26:13;;;;;;;8.52;5.68;;;15.90;99.90;;;;;;4961634;28;20026;-93
2021/07/28 08:28:40;;;;;;;9.18;5.03;;;15.90;99.90;;;;;;4962872;28;20023;-93
2021/07/28 08:31:05;;;;;;;9.13;4.30;;;15.90;99.90;;;;;;4963107;28;20031;-93
2021/07/28 08:33:31;;;;;;;7.47;4.38;;;15.90;99.90;;;;;;4964074;28;20025;-95
2021/07/28 08:35:58;;;;;;;8.27;3.90;;;15.90;99.90;;;;;;4963740;28;20555;-94
2021/07/28 08:38:25;;;;;;;7.20;4.38;;;15.80;99.90;;;;;;4978338;28;20003;-93
2021/07/28 08:41:00;;;;;;;6.88;4.35;;;15.80;99.90;;;;;;4981915;28;20045;-94
2021/07/28 08:43:28;;;;;;;7.65;4.07;;;15.90;99.90;;;;;;4990718;28;20038;-93
2021/07/28 08:45:59;;;;;;;7.22;4.07;;;15.90;99.90;;;;;;4995919;28;20053;-94
2021/07/28 08:48:25;;;;;;;;;;;16.00;99.90;;;;;;4980042;28;20022;-93
2021/07/28 08:50:53;;;;;;;9.93;4.38;;;16.10;99.90;;;;;;4978714;28;19910;-96
2021/07/28 08:53:19;;;;;;;6.03;3.47;;;16.10;99.90;;;;;;4980496;28;20031;-94
2021/07/28 08:55:50;;;;;;;4.15;2.70;;;16.20;99.90;;;;;;4977995;28;20031;-96
2021/07/28 08:58:19;;;;;;;6.57;2.92;;;16.30;99.90;;;;;;4972192;28;20031;-95
2021/07/28 09:00:46;;;;;;;6.63;3.35;;;16.30;99.90;;;;;;4977608;28;20037;-95
2021/07/28 09:03:13;;;;;;;4.25;2.70;;;16.40;99.90;;;;;;4977233;28;20032;-96
2021/07/28 09:05:40;;;;;;;6.03;3.08;;;16.40;99.90;;;;;;4978526;28;20026;-94
2021/07/28 09:08:55;;;;;;;5.55;2.88;;;16.40;99.90;;;;;;4975504;28;20030;-94
2021/07/28 09:11:20;;;;;;;3.97;2.42;;;16.40;99.90;;;;;;4976090;28;20117;-95
2021/07/28 09:13:46;;;;;;;4.30;2.97;;;16.50;99.90;;;;;;4975496;28;20117;-96
2021/07/28 09:16:58;;;;;;;6.53;2.88;;;16.50;99.90;;;;;;4976322;28;20066;-96
2021/07/28 09:19:46;;;;;;;3.58;2.65;;;16.50;99.90;;;;;;4975539;28;20027;-95
2021/07/28 09:22:13;;;;;;;4.63;2.58;;;16.50;99.90;;;;;;4977381;28;20027;-96
2021/07/28 09:24:43;;;;;;;5.70;2.72;;;16.50;99.90;;;;;;4975752;28;20131;-95
2021/07/28 09:27:29;;;;;;;;;;;16.60;99.90;;;;;;4979527;28;20038;-96
2021/07/28 09:30:06;;;;;;;4.15;2.33;;;16.90;99.90;;;;;;4977706;28;20284;-96
2021/07/28 09:32:58;;;;;;;6.47;2.28;;;17.10;99.90;;;;;;4979507;28;20033;-96
2021/07/28 09:35:49;;;;;;;5.75;2.30;;;17.40;99.90;;;;;;4985212;28;20038;-96
2021/07/28 09:38:34;;;;;;;6.10;2.80;;;17.70;99.90;;;;;;4982879;28;20026;-95
2021/07/28 09:41:46;;;;;;;5.50;2.30;;;18.00;99.90;;;;;;4986387;28;20162;-96
2021/07/28 09:44:44;;;;;;;5.25;2.28;;;18.30;99.90;;;;;;4983104;28;20070;-96
2021/07/28 09:47:42;;;;;;;3.90;2.00;;;18.40;99.60;;;;;;4981825;28;20035;-96
2021/07/28 09:50:08;;;;;;;4.22;2.20;;;18.60;98.50;;;;;;4980665;28;20059;-96
2021/07/28 09:52:34;;;;;;;3.15;2.03;;;18.70;96.80;;;;;;4976501;28;20038;-96
2021/07/28 09:55:20;;;;;;;6.78;1.85;;;18.80;96.90;;;;;;4975617;28;20039;-95
2021/07/28 09:57:53;;;;;;;4.18;1.98;;;19.10;96.80;;;;;;4979079;28;20060;-96
2021/07/28 10:00:19;;;;;;;4.07;1.90;;;19.20;96.50;;;;;;4965726;28;20027;-96
2021/07/28 10:02:46;;;;;;;2.85;1.80;;;19.30;95.20;;;;;;4980269;28;20122;-94
2021/07/28 10:05:13;;;;;;;2.40;1.80;;;19.40;94.50;;;;;;4979907;28;20023;-96
2021/07/28 10:07:40;;;;;;;6.43;2.33;;;19.50;93.80;;;;;;4976626;28;20031;-96
2021/07/28 10:10:11;;;;;;;2.40;1.90;;;19.70;93.80;;;;;;4979464;28;20129;-96
2021/07/28 10:12:40;;;;;;;2.28;1.88;;;19.90;93.10;;;;;;4977208;28;20492;-96
2021/07/28 10:15:10;;;;;;;2.83;2.17;;;20.00;92.00;;;;;;4975989;28;20086;-94
2021/07/28 10:17:40;;;;;;;3.97;2.08;;;20.10;92.00;;;;;;4975088;28;20278;-93
2021/07/28 10:20:09;;;;;;;3.30;1.90;;;20.30;91.90;;;;;;4974922;28;20019;-95
2021/07/28 10:22:37;;;;;;;6.10;2.25;;;20.50;91.30;;;;;;4975272;28;20039;-96
2021/07/28 10:25:13;;;;;;;5.97;2.28;;;20.60;90.40;;;;;;4978204;28;20054;-95
2021/07/28 10:27:42;;;;;;;3.97;2.20;;;20.80;90.00;;;;;;4976280;28;20033;-95
2021/07/28 10:30:14;;;;;;;3.55;2.42;;;20.70;88.60;;;;;;4977459;28;20023;-96
2021/07/28 10:32:40;;;;;;;4.55;2.90;;;20.80;88.30;;;;;;4982496;28;20039;-96
2021/07/28 10:35:22;;;;;;;5.45;3.03;;;20.80;87.10;;;;;;4982025;28;20026;-95
2021/07/28 10:37:48;;;;;;;6.07;3.97;;;20.70;85.90;;;;;;4987873;28;20058;-96
2021/07/28 10:40:26;;;;;;;5.38;3.45;;;20.40;86.10;;;;;;4986143;28;20027;-96
2021/07/28 10:42:55;;;;;;;4.43;2.50;;;20.20;86.80;;;;;;4988951;28;20050;-95
2021/07/28 10:45:24;;;;;;;3.10;2.05;;;20.30;88.10;;;;;;4971106;28;20035;-96
2021/07/28 10:47:52;;;;;;;5.30;2.65;;;20.40;88.20;;;;;;4966746;28;20022;-94
2021/07/28 10:50:26;;;;;;;4.65;3.05;;;20.60;88.40;;;;;;4964628;28;20022;-96
2021/07/28 10:52:53;;;;;;;5.45;2.78;;;20.70;88.30;;;;;;4966850;28;20036;-96
2021/07/28 10:55:27;;;;;;;5.03;2.38;;;20.80;87.80;;;;;;4965866;28;20122;-95
2021/07/28 10:57:53;;;;;;;5.97;2.42;;;20.90;87.60;;;;;;4964014;28;20029;-95
2021/07/28 11:00:38;;;;;;;3.67;2.42;;;20.80;87.00;;;;;;4964040;28;20034;-95
2021/07/28 11:03:04;;;;;;;5.13;2.90;;;20.90;86.70;;;;;;4964068;28;20113;-94
2021/07/28 11:05:35;;;;;;;4.70;2.53;;;20.90;86.00;;;;;;4966157;28;20027;-95
2021/07/28 11:08:07;;;;;;;6.80;2.40;;;20.70;85.20;;;;;;4964112;28;20026;-96
2021/07/28 11:10:40;;;;;;;5.90;2.42;;;20.60;85.20;;;;;;4959468;28;20042;-94
2021/07/28 11:13:07;;;;;;;3.30;2.10;;;20.40;85.10;;;;;;4959019;28;20026;-95
2021/07/28 11:15:33;;;;;;;4.95;2.55;;;20.20;85.40;;;;;;4958936;28;20046;-94
2021/07/28 11:18:02;;;;;;;5.53;2.47;;;20.10;85.70;;;;;;4958498;28;20034;-96
2021/07/28 11:20:32;;;;;;;3.80;2.40;;;20.00;86.30;;;;;;4958629;28;20030;-96
2021/07/28 11:23:27;;;;;;;8.02;2.47;;;19.80;86.60;;;;;;4957697;28;20031;-93
2021/07/28 11:25:58;;;;;;;4.68;2.42;;;19.60;86.60;;;;;;4942951;28;20062;-94
2021/07/28 11:28:25;;;;;;;7.53;2.80;;;19.50;87.00;;;;;;4959452;28;20508;-94
2021/07/28 11:30:55;;;;;;;4.82;2.42;;;19.40;87.10;;;;;;4957955;28;20027;-95
2021/07/28 11:33:21;;;;;;;4.93;2.25;;;19.40;87.70;;;;;;4959635;28;20103;-95
2021/07/28 11:35:52;;;;;;;2.58;2.20;;;19.40;88.00;;;;;;4960091;28;20031;-96
2021/07/28 11:38:25;;;;;;;3.78;2.15;;;19.30;87.60;;;;;;4959872;28;20078;-96
2021/07/28 11:41:00;;;;;;;3.90;2.30;;;19.20;88.00;;;;;;4962403;28;20039;-95
2021/07/28 11:43:30;;;;;;;4.10;2.28;;;19.00;88.70;;;;;;4972624;28;20389;-96
2021/07/28 11:46:04;;;;;;;4.72;2.55;;;18.90;89.80;;;;;;4978904;28;20038;-96
2021/07/28 11:48:44;;;;;;;4.80;2.40;;;18.70;90.30;;;;;;4980230;28;20125;-94
2021/07/28 11:51:35;;;;;;;6.50;3.07;;;18.60;90.80;;;;;;4981250;28;20058;-95
2021/07/28 11:54:12;;;;;;;3.70;2.78;;;18.40;91.60;;;;;;4980884;28;20042;-96
2021/07/28 11:56:45;;;;;;;4.20;2.20;;;18.20;93.00;;;;;;4986073;28;20033;-95
2021/07/28 11:59:12;;;;;;;3.55;2.25;;;17.90;93.80;;;;;;4983683;28;20042;-95
2021/07/28 12:01:47;;;;;;;3.80;1.95;;;17.70;94.40;;;;;;4974540;28;20059;-93
2021/07/28 12:04:18;;;;;;;2.85;2.08;;;17.40;94.90;;;;;;4973556;28;20030;-93
2021/07/28 12:06:44;;;;;;;5.40;2.50;;;17.20;95.50;;;;;;4977163;28;20058;-91
2021/07/28 12:09:18;;;;;;;6.63;2.83;;;17.10;96.10;;;;;;4977535;28;20118;-93
2021/07/28 12:12:20;;;;;;;4.93;2.35;;;17.00;97.30;;;;;;4977480;28;20506;-93
2021/07/28 12:14:48;;;;;;;7.00;2.72;;;17.00;98.40;;;;;;4957864;28;20031;-93
2021/07/28 12:17:13;;;;;;;5.82;2.30;;;17.00;98.90;;;;;;4976148;28;20045;-93
2021/07/28 12:19:50;;;;;;;6.68;2.45;;;17.00;99.50;;;;;;4976605;28;20485;-92
2021/07/28 12:22:16;;;;;;;10.18;2.53;;;17.00;99.90;;;;;;4976611;28;20115;-92
2021/07/28 12:24:47;;;;;;;9.27;2.60;;;16.90;99.90;;;;;;4975346;28;20471;-92
2021/07/28 12:27:35;;;;;;;5.78;2.58;;;16.80;99.90;;;;;;4975869;28;20476;-94
2021/07/28 12:30:08;;;;;;;10.73;3.35;;;16.40;99.90;;;;;;4958141;29;20069;-93
2021/07/28 12:32:54;;;;;;;5.78;2.35;;;16.00;99.90;;;;;;4959155;29;20119;-93
2021/07/28 12:35:20;;;;;;;6.40;2.47;;;15.90;99.90;;;;;;4963303;28;20065;-95
2021/07/28 12:38:02;;;;;;;4.10;2.30;;;15.70;99.90;;;;;;4977432;28;20034;-93
2021/07/28 12:40:28;;;;;;;4.97;2.35;;;15.50;99.90;;;;;;4977092;28;20528;-93
2021/07/28 12:42:54;;;;;;;7.85;2.45;;;15.40;99.90;;;;;;4979194;28;20090;-94
2021/07/28 12:45:26;;;;;;;7.80;1.92;;;15.40;99.90;;;;;;4978146;28;20058;-94
2021/07/28 12:47:54;;;;;;;3.53;1.63;;;15.50;99.90;;;;;;4977530;28;20055;-95
2021/07/28 12:50:23;;;;;;;4.22;1.65;;;15.60;99.90;;;;;;4977249;28;20027;-96
2021/07/28 12:53:01;;;;;;;2.42;1.80;;;15.80;99.90;;;;;;4976579;28;20035;-93
2021/07/28 12:55:27;;;;;;;3.53;1.63;;;15.80;99.90;;;;;;4977392;28;20370;-94
2021/07/28 12:57:56;;;;;;;4.07;1.58;;;15.70;99.90;;;;;;4977431;28;20121;-94
2021/07/28 13:00:22;;;;;;;4.85;2.05;;;15.70;99.90;;;;;;4977847;28;20030;-93
2021/07/28 13:02:53;;;;;;;3.47;1.95;;;15.80;99.90;;;;;;4981126;28;20031;-94